Time;durP1;ratioP1;P1;durP2;ratioP2;P2;SDS_P1;SDS_P2;PMS_P1;PMS_P2;Temp;Humidity;BMP_temperature;BMP_pressure;BME280_temperature;BME280_humidity;BME280_pressure;Samples;Min_cycle;Max_cycle;Signal;HPM_P1;HPM_P2
2022/04/30 00:02:23;;;;;;;13.43;6.85;;;;;;;6.13;96.93;103046.34;5091258;28;20437;-60
2022/04/30 00:04:48;;;;;;;12.20;6.65;;;;;;;6.11;97.00;103039.31;5072227;28;20099;-60
2022/04/30 00:07:19;;;;;;;12.57;6.38;;;;;;;6.04;96.77;103036.63;5092827;28;20028;-60
2022/04/30 00:09:46;;;;;;;10.93;6.20;;;;;;;6.00;97.26;103031.34;5092400;28;20028;-59
2022/04/30 00:12:11;;;;;;;13.55;6.57;;;;;;;5.97;98.11;103028.63;5092588;28;20020;-60
2022/04/30 00:14:37;;;;;;;12.93;6.60;;;;;;;5.95;98.70;103035.63;5092267;28;20024;-60
2022/04/30 00:17:03;;;;;;;11.55;5.82;;;;;;;5.94;98.25;103024.22;5093399;28;20403;-59
2022/04/30 00:19:29;;;;;;;13.50;6.43;;;;;;;5.95;98.52;103025.13;5092446;28;20032;-59
2022/04/30 00:21:55;;;;;;;11.40;6.35;;;;;;;5.91;97.80;103025.06;5092531;28;20027;-59
2022/04/30 00:24:21;;;;;;;13.48;6.70;;;;;;;5.90;98.61;103032.94;5074148;28;20024;-59
2022/04/30 00:26:47;;;;;;;12.00;6.70;;;;;;;5.86;98.25;103023.28;5093209;28;20391;-59
2022/04/30 00:29:12;;;;;;;10.63;6.20;;;;;;;5.83;98.02;103036.38;5091287;28;20039;-59
2022/04/30 00:31:38;;;;;;;13.13;7.10;;;;;;;5.82;99.13;103026.72;5092320;28;20028;-59
2022/04/30 00:34:05;;;;;;;9.52;6.20;;;;;;;5.80;98.67;103025.84;5092102;28;20487;-59
2022/04/30 00:36:30;;;;;;;10.80;6.25;;;;;;;5.79;98.65;103030.19;5092326;28;20036;-59
2022/04/30 00:38:56;;;;;;;10.15;6.40;;;;;;;5.78;98.50;103032.81;5092724;28;20036;-59
2022/04/30 00:41:23;;;;;;;12.88;6.60;;;;;;;5.77;98.62;103031.03;5091693;28;20140;-59
2022/04/30 00:43:50;;;;;;;13.15;6.65;;;;;;;5.74;98.85;103022.28;5091744;28;20078;-59
2022/04/30 00:46:26;;;;;;;12.57;6.13;;;;;;;5.74;98.41;103026.63;5091972;28;20038;-59
2022/04/30 00:48:53;;;;;;;11.70;6.45;;;;;;;5.72;99.17;103017.88;5055794;28;20052;-59
2022/04/30 00:51:20;;;;;;;11.48;6.25;;;;;;;5.71;99.03;103026.63;5071832;28;20514;-59
2022/04/30 00:53:51;;;;;;;10.43;6.82;;;;;;;5.66;99.72;103015.16;5071658;28;20025;-59
2022/04/30 00:56:32;;;;;;;11.95;6.20;;;;;;;5.64;99.57;103022.13;5074136;28;20029;-59
2022/04/30 00:59:04;;;;;;;13.02;6.40;;;;;;;5.59;99.72;103016.84;5092763;28;20024;-59
2022/04/30 01:01:34;;;;;;;13.43;6.90;;;;;;;5.56;100.00;103007.19;5091923;28;20016;-59
2022/04/30 01:03:59;;;;;;;15.23;6.30;;;;;;;5.54;100.00;103006.28;5091636;28;20016;-59
2022/04/30 01:07:00;;;;;;;12.90;6.63;;;;;;;5.51;100.00;103015.88;5092023;28;20471;-59
2022/04/30 01:09:28;;;;;;;12.98;5.78;;;;;;;5.49;100.00;103018.47;5056669;28;20453;-59
2022/04/30 01:12:06;;;;;;;11.88;6.30;;;;;;;5.46;100.00;103010.59;5091802;28;20039;-59
2022/04/30 01:14:32;;;;;;;9.98;6.15;;;;;;;5.47;100.00;103004.44;5074131;28;20028;-59
2022/04/30 01:16:59;;;;;;;16.17;7.03;;;;;;;5.47;100.00;103009.69;5073025;28;20197;-58
2022/04/30 01:19:27;;;;;;;11.05;6.28;;;;;;;5.48;100.00;102994.81;5073789;28;20221;-59
2022/04/30 01:21:56;;;;;;;11.95;6.32;;;;;;;5.49;100.00;102992.22;5091848;28;20708;-59
2022/04/30 01:24:23;;;;;;;10.57;6.40;;;;;;;5.51;100.00;102997.47;5091569;28;20457;-59
2022/04/30 01:26:53;;;;;;;13.30;6.18;;;;;;;5.52;100.00;102992.22;5091698;28;20024;-59
2022/04/30 01:29:21;;;;;;;12.02;6.68;;;;;;;5.59;100.00;102998.47;5093056;28;20047;-59
2022/04/30 01:37:22;;;;;;;14.07;6.38;;;;;;;5.75;100.00;102981.06;5091921;28;20042;-59
2022/04/30 01:39:52;;;;;;;11.30;6.22;;;;;;;5.74;100.00;102980.22;5092508;28;20020;-59
2022/04/30 01:42:18;;;;;;;10.10;6.38;;;;;;;5.74;100.00;102988.09;5094564;28;20051;-59
2022/04/30 01:44:46;;;;;;;12.32;6.07;;;;;;;5.77;99.59;102982.00;5095082;28;20032;-59
2022/04/30 01:47:14;;;;;;;9.88;6.00;;;;;;;5.79;99.79;102979.38;5095177;28;20442;-58
2022/04/30 01:49:40;;;;;;;8.25;5.53;;;;;;;5.81;99.84;102983.78;5095335;28;20043;-59
2022/04/30 01:52:07;;;;;;;11.82;6.13;;;;;;;5.86;99.10;102975.94;5095441;28;20472;-59
2022/04/30 01:54:32;;;;;;;12.93;6.25;;;;;;;5.90;98.88;102973.34;5094215;28;20487;-59
2022/04/30 01:56:57;;;;;;;10.70;5.90;;;;;;;5.91;98.51;102979.50;5076571;28;20038;-58
2022/04/30 01:59:23;;;;;;;9.75;6.32;;;;;;;5.89;98.45;102973.31;5094466;28;20106;-59
2022/04/30 02:01:49;;;;;;;10.30;6.35;;;;;;;5.83;98.72;102968.91;5095985;28;20118;-60
2022/04/30 02:04:15;;;;;;;10.65;5.90;;;;;;;5.80;99.01;102968.84;5095018;28;20036;-60
2022/04/30 02:06:40;;;;;;;12.48;6.30;;;;;;;5.77;98.38;102966.22;5094806;28;20034;-58
2022/04/30 02:09:06;;;;;;;10.23;6.47;;;;;;;5.74;99.08;102968.78;5094525;28;20066;-58
2022/04/30 02:11:31;;;;;;;10.57;6.20;;;;;;;5.70;98.49;102967.91;5078137;28;20020;-59
2022/04/30 02:14:00;;;;;;;11.88;6.50;;;;;;;5.69;99.57;102974.03;5076897;28;20122;-60
2022/04/30 02:16:28;;;;;;;11.93;6.53;;;;;;;5.70;98.43;102961.75;5094685;28;20028;-60
2022/04/30 02:18:56;;;;;;;10.40;5.90;;;;;;;5.74;99.26;102966.16;5094398;28;20093;-60
2022/04/30 02:21:23;;;;;;;12.57;5.85;;;;;;;5.79;98.92;102955.69;5085757;28;20143;-58
2022/04/30 02:23:48;;;;;;;9.35;5.82;;;;;;;5.87;98.79;102956.63;5094567;28;20028;-58
2022/04/30 02:26:16;;;;;;;10.45;6.50;;;;;;;5.95;98.23;102949.72;5076404;28;20437;-59
2022/04/30 02:28:42;;;;;;;8.57;5.82;;;;;;;6.03;97.52;102957.69;5075973;28;20028;-59
2022/04/30 02:31:07;;;;;;;9.55;5.80;;;;;;;6.09;96.99;102955.13;5094340;28;20028;-58
2022/04/30 02:33:32;;;;;;;14.35;6.15;;;;;;;6.15;96.84;102964.81;5095792;28;20036;-60
2022/04/30 02:35:58;;;;;;;10.18;5.80;;;;;;;6.19;97.05;102951.69;5076020;28;20506;-59
2022/04/30 02:38:26;;;;;;;11.23;6.80;;;;;;;6.23;96.69;102950.84;5076364;28;20059;-58
2022/04/30 02:40:51;;;;;;;12.45;6.45;;;;;;;6.27;95.40;102953.50;5093675;28;20036;-59
2022/04/30 02:43:26;;;;;;;10.77;6.40;;;;;;;6.31;95.20;102950.03;5095270;28;20078;-59
2022/04/30 02:45:51;;;;;;;10.70;6.13;;;;;;;6.36;95.87;102950.94;5092671;28;20036;-60
2022/04/30 02:48:16;;;;;;;9.32;6.57;;;;;;;6.39;95.31;102949.22;5090291;28;20164;-59
2022/04/30 02:50:42;;;;;;;9.90;6.43;;;;;;;6.41;95.45;102941.31;5086342;28;20040;-59
2022/04/30 02:53:08;;;;;;;12.45;6.50;;;;;;;6.45;95.17;102945.72;5089752;28;20475;-59
2022/04/30 02:55:35;;;;;;;9.98;5.88;;;;;;;6.49;94.94;102951.91;5092266;28;20078;-59
2022/04/30 03:00:46;;;;;;;9.32;5.80;;;;;;;6.60;94.87;102934.41;5083916;28;20055;-59
2022/04/30 03:03:13;;;;;;;10.10;5.60;;;;;;;6.65;94.74;102940.59;5082131;28;20155;-59
2022/04/30 03:05:48;;;;;;;12.50;5.78;;;;;;;6.69;94.33;102930.97;5084167;28;20028;-59
2022/04/30 03:08:20;;;;;;;11.25;5.82;;;;;;;6.73;94.75;102938.84;5070847;28;20030;-59
2022/04/30 03:10:47;;;;;;;7.78;5.53;;;;;;;6.73;93.36;102938.84;5070365;28;20032;-60
2022/04/30 03:13:14;;;;;;;8.48;5.75;;;;;;;6.80;93.40;102937.13;5091322;28;20110;-59
2022/04/30 03:15:44;;;;;;;7.88;5.40;;;;;;;6.84;93.62;102925.75;5071979;28;20059;-59
2022/04/30 03:23:39;;;;;;;9.85;5.40;;;;;;;6.96;92.94;102930.19;5076139;28;20942;-59
2022/04/30 03:26:05;;;;;;;10.10;5.60;;;;;;;6.95;93.19;102928.44;5087158;28;20089;-59
2022/04/30 03:28:32;;;;;;;7.90;5.30;;;;;;;6.94;92.74;102925.78;5089351;28;20093;-59
2022/04/30 03:30:58;;;;;;;9.40;5.40;;;;;;;6.96;93.12;102929.31;5085534;28;20036;-58
2022/04/30 03:33:24;;;;;;;9.45;5.65;;;;;;;7.01;92.85;102925.81;5078761;28;20042;-58
2022/04/30 03:35:49;;;;;;;8.98;5.60;;;;;;;7.06;92.25;102923.22;5049322;28;20036;-59
2022/04/30 03:38:14;;;;;;;9.05;5.38;;;;;;;7.03;92.95;102918.81;5050064;28;20092;-59
2022/04/30 03:40:40;;;;;;;8.23;5.50;;;;;;;7.07;93.14;102910.91;5091930;28;20487;-58
2022/04/30 03:43:07;;;;;;;9.70;5.30;;;;;;;7.12;93.57;102910.03;5092210;28;20403;-59
2022/04/30 03:45:33;;;;;;;9.65;5.90;;;;;;;7.12;93.23;102912.66;5086205;28;20042;-59
2022/04/30 03:47:58;;;;;;;9.73;5.47;;;;;;;7.14;93.56;102913.56;5077752;28;20491;-59
2022/04/30 03:50:24;;;;;;;8.75;5.53;;;;;;;7.15;93.85;102899.53;5089717;28;20098;-59
2022/04/30 03:52:49;;;;;;;8.63;5.25;;;;;;;7.20;92.84;102902.19;5092047;28;20146;-59
2022/04/30 03:55:15;;;;;;;8.20;5.32;;;;;;;7.21;93.22;102906.53;5083264;28;20043;-58
2022/04/30 03:57:41;;;;;;;8.63;5.60;;;;;;;7.20;93.23;102895.13;5089754;28;20106;-58
2022/04/30 04:00:08;;;;;;;8.80;5.97;;;;;;;7.25;93.05;102894.25;5072006;28;20028;-58
2022/04/30 04:02:36;;;;;;;9.30;5.75;;;;;;;7.26;92.99;102898.66;5083051;28;20028;-58
2022/04/30 04:05:02;;;;;;;9.57;5.85;;;;;;;7.26;93.25;102896.91;5089335;28;20027;-58
2022/04/30 04:07:27;;;;;;;9.18;5.63;;;;;;;7.26;93.54;102896.03;5084221;28;20028;-58
2022/04/30 04:09:52;;;;;;;9.85;5.50;;;;;;;7.27;94.03;102898.66;5089324;28;20552;-58
2022/04/30 04:12:18;;;;;;;7.72;5.45;;;;;;;7.32;93.84;102901.31;5057358;28;20051;-58
2022/04/30 04:17:39;;;;;;;10.75;5.60;;;;;;;7.35;92.90;102907.47;5083049;28;20038;-59
2022/04/30 04:20:13;;;;;;;7.78;5.85;;;;;;;7.37;92.71;102912.75;5090684;28;20066;-59
2022/04/30 04:22:39;;;;;;;9.30;5.75;;;;;;;7.39;92.40;102918.88;5096094;28;20107;-59
2022/04/30 04:27:55;;;;;;;10.57;6.03;;;;;;;7.45;92.67;102926.81;5074257;28;20156;-59
2022/04/30 04:30:30;;;;;;;9.82;5.60;;;;;;;7.45;92.33;102918.03;5091511;28;20024;-59
2022/04/30 04:32:57;;;;;;;9.93;5.93;;;;;;;7.46;92.24;102927.72;5094198;28;20027;-59
2022/04/30 04:35:23;;;;;;;8.48;5.22;;;;;;;7.44;92.56;102927.69;5086557;28;20388;-59
2022/04/30 04:37:49;;;;;;;9.35;5.75;;;;;;;7.42;92.53;102924.19;5074219;28;20032;-59
2022/04/30 04:40:16;;;;;;;9.95;5.65;;;;;;;7.43;92.89;102923.31;5069722;28;20043;-59
2022/04/30 04:42:42;;;;;;;9.60;5.63;;;;;;;7.45;92.93;102918.03;5090567;28;20074;-59
2022/04/30 04:45:08;;;;;;;10.30;5.85;;;;;;;7.47;93.15;102925.06;5086543;28;20075;-59
2022/04/30 04:47:35;;;;;;;9.77;6.43;;;;;;;7.50;93.59;102924.19;5083451;28;20039;-59
2022/04/30 04:50:04;;;;;;;8.55;5.32;;;;;;;7.53;92.35;102921.53;5092725;28;20099;-59
2022/04/30 04:52:30;;;;;;;10.00;5.72;;;;;;;7.53;92.45;102909.25;5069984;28;20479;-59
2022/04/30 04:54:56;;;;;;;10.80;5.47;;;;;;;7.59;92.53;102921.56;5090484;28;20031;-59
2022/04/30 04:57:22;;;;;;;11.18;6.38;;;;;;;7.63;93.10;102925.94;5090142;28;20031;-59
2022/04/30 04:59:47;;;;;;;10.95;6.13;;;;;;;7.60;92.19;102931.22;5090469;28;20467;-60
2022/04/30 05:02:13;;;;;;;10.23;5.55;;;;;;;7.63;92.21;102933.00;5069654;28;20555;-60
2022/04/30 05:04:39;;;;;;;10.55;5.93;;;;;;;7.64;92.23;102940.03;5071278;28;20035;-60
2022/04/30 05:07:04;;;;;;;12.65;6.25;;;;;;;7.66;92.37;102938.25;5085519;28;20035;-60
2022/04/30 05:09:32;;;;;;;11.02;5.68;;;;;;;7.71;93.19;102936.50;5068387;28;20030;-60
2022/04/30 05:12:01;;;;;;;10.05;5.90;;;;;;;7.74;91.98;102946.19;5074159;28;20416;-60
2022/04/30 05:14:32;;;;;;;11.52;5.68;;;;;;;7.78;91.92;102947.97;5087802;28;20115;-59
2022/04/30 05:16:58;;;;;;;13.23;6.20;;;;;;;7.80;92.03;102944.44;5092200;28;20848;-59
2022/04/30 05:19:23;;;;;;;9.30;6.13;;;;;;;7.81;92.20;102940.94;5091636;28;20533;-60
2022/04/30 05:21:49;;;;;;;10.07;5.60;;;;;;;7.84;92.06;102940.06;5093546;28;20131;-60
2022/04/30 05:24:14;;;;;;;8.88;5.40;;;;;;;7.84;91.63;102934.78;5090669;28;20027;-60
2022/04/30 05:26:39;;;;;;;11.63;5.97;;;;;;;7.85;92.08;102939.16;5077956;28;20043;-59
2022/04/30 05:29:06;;;;;;;9.15;6.00;;;;;;;7.84;92.04;102930.38;5081774;28;20506;-59
2022/04/30 05:31:31;;;;;;;14.75;6.32;;;;;;;7.87;91.86;102940.03;5095403;28;20032;-59
2022/04/30 05:33:56;;;;;;;10.55;5.90;;;;;;;7.90;92.03;102929.47;5076667;28;20483;-59
2022/04/30 05:36:22;;;;;;;11.43;5.88;;;;;;;7.93;91.96;102936.50;5075777;28;20487;-59
2022/04/30 05:38:47;;;;;;;10.55;6.28;;;;;;;8.01;91.88;102942.69;5067748;28;20503;-59
2022/04/30 05:41:12;;;;;;;10.95;6.00;;;;;;;8.03;91.63;102935.63;5095915;28;20521;-59
2022/04/30 05:43:38;;;;;;;12.70;6.00;;;;;;;8.08;92.09;102939.19;5087934;28;20036;-58
2022/04/30 05:46:03;;;;;;;9.40;5.93;;;;;;;8.09;91.41;102942.69;5093369;28;20028;-58
2022/04/30 05:48:29;;;;;;;11.20;6.22;;;;;;;8.10;91.66;102937.41;5093793;28;20024;-58
2022/04/30 05:50:55;;;;;;;10.85;6.10;;;;;;;8.09;90.81;102933.00;5076557;28;20031;-59
2022/04/30 05:53:21;;;;;;;8.48;6.07;;;;;;;8.11;91.57;102931.25;5091938;28;20028;-59
2022/04/30 05:55:46;;;;;;;12.35;6.22;;;;;;;8.21;91.55;102929.50;5094209;28;20039;-60
2022/04/30 05:58:12;;;;;;;10.20;5.60;;;;;;;8.30;91.23;102929.47;5089197;28;20064;-59
2022/04/30 06:00:37;;;;;;;11.63;6.35;;;;;;;8.35;90.33;102932.06;5077565;28;20394;-59
2022/04/30 06:03:02;;;;;;;9.00;5.72;;;;;;;8.34;89.97;102925.06;5090843;28;20382;-59
2022/04/30 06:05:28;;;;;;;9.57;5.90;;;;;;;8.36;89.65;102929.47;5093162;28;20039;-59
2022/04/30 06:07:53;;;;;;;11.52;5.97;;;;;;;8.36;90.54;102932.09;5096294;28;20577;-59
2022/04/30 06:10:19;;;;;;;10.20;5.72;;;;;;;8.49;90.00;102925.06;5093458;28;20043;-59
2022/04/30 06:12:44;;;;;;;11.40;6.20;;;;;;;8.60;90.70;102914.44;5093374;28;20034;-59
2022/04/30 06:15:10;;;;;;;13.18;6.28;;;;;;;8.72;90.13;102913.56;5068326;28;20028;-60
2022/04/30 06:17:35;;;;;;;10.63;6.45;;;;;;;8.86;89.48;102921.41;5092712;28;20063;-59
2022/04/30 06:20:01;;;;;;;12.25;6.53;;;;;;;8.95;88.69;102929.31;5095792;28;20028;-58
2022/04/30 06:22:26;;;;;;;9.20;6.32;;;;;;;8.97;87.34;102932.81;5094501;28;20054;-59
2022/04/30 06:24:51;;;;;;;12.50;6.15;;;;;;;9.05;87.67;102927.47;5094199;28;20024;-58
2022/04/30 06:27:17;;;;;;;10.73;5.88;;;;;;;9.04;86.65;102933.69;5075615;28;20028;-59
2022/04/30 06:29:42;;;;;;;10.77;5.60;;;;;;;9.11;86.69;102942.44;5094521;28;20381;-60
2022/04/30 06:32:09;;;;;;;11.82;5.68;;;;;;;9.17;86.76;102942.41;5095403;28;20039;-59
2022/04/30 06:34:34;;;;;;;12.40;5.72;;;;;;;9.17;85.60;102942.41;5076506;28;20028;-59
2022/04/30 06:37:00;;;;;;;8.70;5.10;;;;;;;9.04;85.03;102943.34;5076043;28;20036;-59
2022/04/30 06:39:25;;;;;;;7.88;4.75;;;;;;;8.92;85.97;102939.88;5104617;28;20032;-59
2022/04/30 06:41:51;;;;;;;10.07;5.32;;;;;;;8.82;86.74;102936.41;5096853;28;20048;-59
2022/04/30 06:44:16;;;;;;;12.48;7.53;;;;;;;8.85;87.48;102933.75;5094041;28;20028;-59
2022/04/30 06:46:42;;;;;;;10.18;5.22;;;;;;;8.88;86.98;102932.84;5093379;28;20498;-59
2022/04/30 06:49:08;;;;;;;12.45;5.80;;;;;;;8.94;87.68;102935.47;5093682;28;20368;-59
2022/04/30 06:51:33;;;;;;;9.88;5.63;;;;;;;9.09;86.76;102933.63;5094555;28;20118;-59
2022/04/30 06:59:28;;;;;;;11.23;5.70;;;;;;;9.63;84.21;102920.97;5088761;28;20172;-59
2022/04/30 07:04:24;;;;;;;8.25;4.95;;;;;;;10.16;82.25;102925.81;5109309;28;20036;-59
2022/04/30 07:06:50;;;;;;;9.90;5.13;;;;;;;10.32;79.90;102924.78;5104726;28;20053;-60
2022/04/30 07:09:16;;;;;;;11.00;5.78;;;;;;;10.41;79.65;102921.19;5093311;28;20107;-60
2022/04/30 07:11:41;;;;;;;7.63;4.90;;;;;;;10.29;78.78;102921.28;5095170;28;20047;-60
2022/04/30 07:14:07;;;;;;;9.18;5.30;;;;;;;10.46;79.76;102916.72;5110942;28;20390;-60
2022/04/30 07:16:32;;;;;;;9.30;4.65;;;;;;;10.50;78.45;102925.50;5096420;28;20028;-60
2022/04/30 07:18:58;;;;;;;10.50;4.75;;;;;;;10.49;78.18;102921.97;5093282;28;20428;-59
2022/04/30 07:21:24;;;;;;;7.60;4.85;;;;;;;10.52;77.89;102928.13;5075327;28;20032;-59
2022/04/30 07:23:51;;;;;;;8.57;5.65;;;;;;;10.66;76.55;102918.25;5090253;28;20023;-59
2022/04/30 07:26:16;;;;;;;15.88;8.80;;;;;;;10.94;74.58;102917.91;5089584;28;20038;-59
2022/04/30 07:28:42;;;;;;;27.00;15.18;;;;;;;11.15;73.85;102919.38;5091909;28;20177;-59
2022/04/30 07:31:08;;;;;;;17.80;12.10;;;;;;;11.43;72.89;102921.66;5055970;28;20064;-59
2022/04/30 07:33:34;;;;;;;8.57;4.70;;;;;;;11.63;70.76;102919.56;5089610;28;20097;-59
2022/04/30 07:36:00;;;;;;;7.90;4.13;;;;;;;11.47;69.56;102921.59;5094410;28;20028;-59
2022/04/30 07:38:25;;;;;;;8.27;5.25;;;;;;;11.42;71.05;102917.22;5092760;28;20114;-59
2022/04/30 07:40:52;;;;;;;7.85;4.25;;;;;;;11.50;71.35;102920.66;5094016;28;20479;-58
2022/04/30 07:43:18;;;;;;;7.65;4.25;;;;;;;11.36;68.47;102918.22;5094021;28;20044;-59
2022/04/30 07:45:43;;;;;;;11.38;3.95;;;;;;;11.17;68.20;102914.94;5096218;28;20036;-59
2022/04/30 07:48:09;;;;;;;9.43;4.18;;;;;;;11.08;69.14;102913.28;5092793;28;20475;-59
2022/04/30 07:50:37;;;;;;;7.55;4.30;;;;;;;11.03;69.11;102917.78;5101290;28;20554;-59
2022/04/30 07:53:05;;;;;;;5.97;3.63;;;;;;;11.02;68.17;102912.50;5107960;28;20028;-59
2022/04/30 07:55:30;;;;;;;6.68;3.60;;;;;;;11.14;67.61;102905.25;5071342;28;20073;-59
2022/04/30 07:57:57;;;;;;;6.65;3.70;;;;;;;11.14;66.32;102904.41;5083731;28;20032;-59
2022/04/30 08:00:22;;;;;;;7.38;3.63;;;;;;;11.11;67.51;102905.31;5074184;28;20443;-60
2022/04/30 08:02:48;;;;;;;5.80;3.53;;;;;;;11.54;66.69;102908.22;5092061;28;20031;-59
2022/04/30 08:05:13;;;;;;;7.72;3.97;;;;;;;11.66;64.85;102909.81;5057708;28;20182;-59
2022/04/30 08:07:39;;;;;;;7.68;3.90;;;;;;;11.71;65.64;102905.28;5092334;28;20028;-59
2022/04/30 08:10:05;;;;;;;6.90;3.80;;;;;;;12.16;65.12;102904.56;5091461;28;20459;-59
2022/04/30 08:12:30;;;;;;;7.15;3.60;;;;;;;12.37;63.52;102909.47;5090772;28;20024;-59
2022/04/30 08:14:55;;;;;;;7.13;3.67;;;;;;;12.36;64.81;102910.38;5091951;28;20064;-59
2022/04/30 08:17:21;;;;;;;7.50;4.18;;;;;;;12.25;65.38;102901.72;5090962;28;20032;-59
2022/04/30 08:19:47;;;;;;;7.50;3.63;;;;;;;12.08;63.58;102913.53;5091494;28;20039;-60
2022/04/30 08:22:13;;;;;;;5.30;3.83;;;;;;;11.66;65.25;102913.31;5092077;28;20032;-58
2022/04/30 08:24:38;;;;;;;6.35;3.60;;;;;;;11.59;65.58;102915.22;5091804;28;20613;-59
2022/04/30 08:27:04;;;;;;;7.45;3.75;;;;;;;11.43;65.76;102911.94;5091577;28;20039;-59
2022/04/30 08:29:30;;;;;;;7.78;3.70;;;;;;;11.50;65.54;102907.41;5073405;28;20036;-58
2022/04/30 08:31:55;;;;;;;7.30;3.40;;;;;;;11.77;64.70;102898.09;5088317;28;20032;-58
2022/04/30 08:34:21;;;;;;;7.90;3.38;;;;;;;11.66;63.85;102905.34;5089958;28;20081;-57
2022/04/30 08:36:46;;;;;;;5.90;3.63;;;;;;;11.53;65.14;102899.38;5071607;28;20127;-58
2022/04/30 08:39:12;;;;;;;6.68;3.20;;;;;;;11.68;64.38;102898.25;5091414;28;20016;-58
2022/04/30 08:41:41;;;;;;;6.25;3.30;;;;;;;11.80;62.33;102892.75;5092053;28;20072;-58
2022/04/30 08:44:08;;;;;;;6.60;3.50;;;;;;;12.20;62.74;102898.28;5091668;28;20108;-58
2022/04/30 08:46:33;;;;;;;8.70;3.80;;;;;;;12.61;61.41;102888.63;5097061;28;20095;-59
2022/04/30 08:48:59;;;;;;;7.60;3.78;;;;;;;12.78;60.83;102893.59;5109124;28;20398;-59
2022/04/30 08:51:25;;;;;;;7.55;3.38;;;;;;;12.75;60.53;102891.88;5094905;28;20461;-59
2022/04/30 08:53:51;;;;;;;9.30;3.50;;;;;;;12.37;61.52;102897.97;5093996;28;20063;-58
2022/04/30 08:56:16;;;;;;;5.30;3.15;;;;;;;12.18;64.12;102900.97;5091369;28;20483;-58
2022/04/30 08:58:42;;;;;;;8.00;3.83;;;;;;;11.88;67.51;102899.69;5091677;28;20039;-59
2022/04/30 09:01:09;;;;;;;6.78;3.90;;;;;;;11.58;69.69;102905.47;5073338;28;20031;-59
2022/04/30 09:03:36;;;;;;;5.75;3.63;;;;;;;11.31;72.65;102890.88;5074231;28;20424;-59
2022/04/30 09:06:04;;;;;;;7.95;4.28;;;;;;;11.06;73.71;102899.19;5091300;28;20035;-59
2022/04/30 09:08:29;;;;;;;6.88;3.90;;;;;;;10.93;74.34;102901.16;5091274;28;20115;-59
2022/04/30 09:11:06;;;;;;;6.80;4.25;;;;;;;10.85;74.47;102907.44;5090807;28;20115;-59
2022/04/30 09:13:32;;;;;;;7.07;4.05;;;;;;;10.88;76.12;102902.97;5039512;28;20480;-59
2022/04/30 09:15:58;;;;;;;7.65;4.90;;;;;;;11.03;79.93;102901.88;5101628;28;20445;-59
2022/04/30 09:18:23;;;;;;;6.93;4.50;;;;;;;10.99;79.97;102902.81;5072715;28;20055;-59
2022/04/30 09:20:54;;;;;;;6.68;4.00;;;;;;;10.97;78.63;102904.59;5091105;28;20118;-59
2022/04/30 09:23:31;;;;;;;8.75;4.28;;;;;;;10.97;79.78;102907.25;5091429;28;20540;-59
2022/04/30 09:25:59;;;;;;;7.90;4.32;;;;;;;11.23;81.10;102903.41;5090862;28;20036;-59
2022/04/30 09:28:32;;;;;;;8.43;4.32;;;;;;;11.27;77.34;102898.00;5073412;28;20043;-59
2022/04/30 09:31:11;;;;;;;8.70;4.40;;;;;;;11.41;79.34;102902.25;5091027;28;20035;-59
2022/04/30 09:33:43;;;;;;;7.50;4.05;;;;;;;11.72;79.54;102891.13;5090896;28;20069;-59
2022/04/30 09:38:53;;;;;;;7.88;3.60;;;;;;;11.56;79.01;102896.69;5092351;28;20039;-60
2022/04/30 09:41:24;;;;;;;6.13;3.65;;;;;;;11.57;78.52;102895.78;5110789;28;20023;-60
2022/04/30 09:44:07;;;;;;;6.18;3.47;;;;;;;11.65;77.17;102893.00;5100640;28;20028;-59
2022/04/30 09:46:37;;;;;;;6.75;3.28;;;;;;;11.89;78.58;102896.13;5073826;28;20024;-59
2022/04/30 09:54:38;;;;;;;10.73;4.15;;;;;;;12.09;83.66;102890.50;5086354;28;20411;-59
2022/04/30 09:57:07;;;;;;;6.47;3.72;;;;;;;11.90;79.19;102888.16;5084290;28;20038;-59
2022/04/30 09:59:38;;;;;;;6.32;3.83;;;;;;;11.56;79.20;102880.78;5073670;28;20024;-59
2022/04/30 10:02:05;;;;;;;8.47;4.07;;;;;;;11.53;81.33;102874.63;5066599;28;20475;-58
2022/04/30 10:04:32;;;;;;;7.90;4.45;;;;;;;11.79;84.21;102876.84;5075103;28;20054;-58
2022/04/30 10:07:00;;;;;;;6.95;3.90;;;;;;;12.07;81.06;102881.69;5094303;28;20530;-58
2022/04/30 10:09:31;;;;;;;7.22;3.97;;;;;;;12.20;80.32;102871.72;5084793;28;20101;-58
2022/04/30 10:12:02;;;;;;;6.05;3.63;;;;;;;12.06;79.22;102870.22;5075316;28;20036;-59
2022/04/30 10:14:33;;;;;;;12.38;6.90;;;;;;;11.74;80.02;102870.72;5094204;28;20028;-59
2022/04/30 10:17:13;;;;;;;6.80;4.13;;;;;;;11.51;81.37;102865.81;5084488;28;20024;-60
2022/04/30 10:19:55;;;;;;;9.50;4.40;;;;;;;11.30;84.69;102863.50;5096415;28;20027;-60
2022/04/30 10:22:20;;;;;;;9.73;5.18;;;;;;;11.28;84.54;102846.72;5088865;28;20035;-58
2022/04/30 10:24:49;;;;;;;7.13;4.20;;;;;;;11.60;84.28;102852.41;5093834;28;20036;-58
2022/04/30 10:27:17;;;;;;;7.65;4.20;;;;;;;11.89;84.00;102851.00;5075451;28;20502;-59
2022/04/30 10:29:55;;;;;;;6.75;4.60;;;;;;;12.18;82.62;102849.63;5082529;28;20029;-59
2022/04/30 10:32:28;;;;;;;9.45;4.50;;;;;;;12.68;82.81;102841.53;5093088;28;20492;-59
2022/04/30 10:34:54;;;;;;;11.77;6.40;;;;;;;13.05;74.60;102836.25;5094282;28;20035;-59
2022/04/30 10:37:38;;;;;;;7.22;3.60;;;;;;;13.08;71.80;102837.97;5095125;28;20402;-59
2022/04/30 10:40:05;;;;;;;6.38;2.75;;;;;;;12.71;68.15;102841.44;5089205;28;20046;-58
2022/04/30 10:42:44;;;;;;;9.30;2.80;;;;;;;12.56;71.11;102824.06;5093800;28;20047;-58
2022/04/30 10:45:15;;;;;;;5.70;2.80;;;;;;;12.71;70.98;102829.06;5081587;28;20032;-59
2022/04/30 10:47:54;;;;;;;4.88;2.65;;;;;;;12.61;70.59;102831.03;5098922;28;20384;-59
2022/04/30 10:50:20;;;;;;;6.55;3.00;;;;;;;12.33;72.06;102835.16;5114113;28;20035;-58
2022/04/30 10:52:49;;;;;;;5.80;2.80;;;;;;;12.18;73.01;102831.91;5097768;28;20024;-58
2022/04/30 10:55:16;;;;;;;6.32;2.88;;;;;;;12.46;71.43;102832.22;5071950;28;20044;-58
2022/04/30 10:57:46;;;;;;;7.35;2.67;;;;;;;12.85;70.68;102827.84;5094315;28;20105;-58
2022/04/30 11:00:12;;;;;;;8.25;2.70;;;;;;;12.83;69.31;102822.56;5076182;28;20601;-59
2022/04/30 11:02:37;;;;;;;5.53;2.90;;;;;;;12.62;68.43;102831.88;5086956;28;20356;-59
2022/04/30 11:05:03;;;;;;;7.93;3.05;;;;;;;12.61;68.71;102827.50;5093528;28;20031;-58
2022/04/30 11:07:30;;;;;;;5.88;2.70;;;;;;;12.74;67.86;102821.00;5079116;28;20158;-58
2022/04/30 11:09:56;;;;;;;5.13;2.70;;;;;;;13.15;66.61;102820.09;5062423;28;20036;-59
2022/04/30 11:12:27;;;;;;;7.05;2.60;;;;;;;13.80;63.92;102816.69;5091636;28;20028;-59
2022/04/30 11:14:54;;;;;;;6.75;2.50;;;;;;;14.42;60.67;102814.97;5075285;28;20114;-58
2022/04/30 11:17:19;;;;;;;4.07;2.40;;;;;;;14.54;58.55;102819.03;5075547;28;20042;-58
2022/04/30 11:19:44;;;;;;;5.18;2.63;;;;;;;14.49;59.18;102823.66;5091681;28;21140;-58
2022/04/30 11:22:11;;;;;;;4.57;2.40;;;;;;;13.79;60.05;102817.59;5092597;28;20074;-59
2022/04/30 11:24:37;;;;;;;2.47;2.00;;;;;;;13.48;60.54;102813.09;5074890;28;20394;-58
2022/04/30 11:27:06;;;;;;;6.82;2.50;;;;;;;13.82;59.71;102817.50;5093892;28;20052;-58
2022/04/30 11:29:32;;;;;;;4.25;2.28;;;;;;;13.91;57.84;102813.72;5093243;28;20128;-58
2022/04/30 11:31:59;;;;;;;3.03;2.30;;;;;;;13.96;57.13;102818.94;5074432;28;20509;-58
2022/04/30 11:34:25;;;;;;;3.80;2.10;;;;;;;13.87;56.47;102810.28;5091887;28;20130;-58
2022/04/30 11:36:53;;;;;;;4.28;2.30;;;;;;;14.22;57.84;102805.78;5093953;28;20108;-58
2022/04/30 11:39:19;;;;;;;4.72;2.25;;;;;;;14.18;54.84;102808.56;5089988;28;20546;-58
2022/04/30 11:41:53;;;;;;;6.70;2.33;;;;;;;14.62;54.29;102816.19;5089802;28;20109;-59
2022/04/30 11:44:20;;;;;;;4.50;2.50;;;;;;;14.52;55.65;102804.91;5057985;28;20039;-58
2022/04/30 11:46:47;;;;;;;4.28;2.28;;;;;;;14.17;55.33;102805.03;5092582;28;20398;-58
2022/04/30 11:49:26;;;;;;;3.65;2.10;;;;;;;13.72;57.57;102800.03;5092559;28;20039;-58
2022/04/30 11:51:54;;;;;;;4.15;2.13;;;;;;;14.20;57.18;102809.38;5089967;28;20094;-59
2022/04/30 11:54:22;;;;;;;3.50;1.90;;;;;;;14.51;52.83;102803.16;5092387;28;20032;-59
2022/04/30 11:56:47;;;;;;;2.25;1.75;;;;;;;15.12;51.70;102795.06;5091578;28;20034;-59
2022/04/30 11:59:13;;;;;;;4.90;1.88;;;;;;;15.07;50.34;102800.53;5073507;28;20028;-59
2022/04/30 12:01:40;;;;;;;2.22;1.70;;;;;;;14.78;51.25;102801.47;5092151;28;20065;-59
2022/04/30 12:04:18;;;;;;;3.15;1.60;;;;;;;14.76;51.25;102792.66;5091579;28;20028;-59